createdAt,value
2017-12-21T00:01:13.128Z,11.88
2017-12-21T00:03:45.602Z,12.30
2017-12-21T00:06:24.181Z,12.10
2017-12-21T00:09:11.154Z,12.90
2017-12-21T00:11:49.506Z,12.45
2017-12-21T00:14:23.333Z,13.35
2017-12-21T00:16:52.666Z,12.70
2017-12-21T00:19:26.167Z,12.18
2017-12-21T00:22:01.404Z,11.02
2017-12-21T00:24:34.234Z,13.15
2017-12-21T00:27:02.667Z,11.73
2017-12-21T00:32:13.660Z,12.52
2017-12-21T00:34:43.368Z,13.40
2017-12-21T00:37:17.948Z,10.82
2017-12-21T00:39:48.305Z,12.88
2017-12-21T00:42:17.062Z,13.60
2017-12-21T00:44:50.451Z,12.32
2017-12-21T00:47:21.600Z,12.55
2017-12-21T00:49:55.707Z,13.95
2017-12-21T00:52:23.575Z,13.27
2017-12-21T00:54:53.135Z,13.50
2017-12-21T00:57:24.117Z,13.55
2017-12-21T00:59:53.889Z,14.20
2017-12-21T01:02:25.482Z,13.07
2017-12-21T01:05:18.096Z,13.60
2017-12-21T01:08:01.652Z,14.27
2017-12-21T01:10:32.300Z,12.82
2017-12-21T01:13:06.986Z,13.52
2017-12-21T01:15:44.004Z,13.60
2017-12-21T01:18:13.455Z,12.60
2017-12-21T01:20:51.198Z,13.60
2017-12-21T01:23:27.870Z,15.55
2017-12-21T01:25:57.245Z,14.15
2017-12-21T01:28:28.311Z,16.75
2017-12-21T01:31:00.070Z,16.08
2017-12-21T01:33:31.360Z,14.55
2017-12-21T01:36:07.743Z,16.77
2017-12-21T01:38:42.102Z,16.80
2017-12-21T01:41:20.819Z,17.05
2017-12-21T01:43:58.091Z,16.08
2017-12-21T01:46:26.411Z,16.00
2017-12-21T01:48:57.181Z,17.55
2017-12-21T01:54:48.168Z,17.60
2017-12-21T01:57:19.076Z,16.90
2017-12-21T01:59:51.093Z,16.45
2017-12-21T02:02:27.464Z,17.10
2017-12-21T02:04:57.981Z,17.20
2017-12-21T02:07:25.576Z,15.90
2017-12-21T02:09:53.141Z,17.55
2017-12-21T02:12:20.616Z,17.55
2017-12-21T02:14:53.634Z,17.05
2017-12-21T02:17:26.989Z,17.50
2017-12-21T02:19:57.515Z,18.12
2017-12-21T02:22:27.019Z,18.37
2017-12-21T02:24:58.982Z,19.37
2017-12-21T02:27:42.420Z,17.85
2017-12-21T02:30:15.296Z,16.80
2017-12-21T02:32:46.235Z,15.10
2017-12-21T02:35:16.444Z,15.50
2017-12-21T02:37:49.245Z,14.95
2017-12-21T02:40:18.561Z,15.00
2017-12-21T02:42:54.389Z,15.57
2017-12-21T02:45:25.836Z,14.90
2017-12-21T02:47:56.833Z,15.48
2017-12-21T02:50:30.261Z,18.98
2017-12-21T02:53:04.277Z,17.15
2017-12-21T02:55:33.682Z,19.20
2017-12-21T02:58:14.997Z,16.65
2017-12-21T03:00:48.662Z,15.63
2017-12-21T03:03:19.226Z,15.30
2017-12-21T03:05:50.166Z,14.95
2017-12-21T03:08:23.018Z,15.60
2017-12-21T03:10:52.925Z,14.60
2017-12-21T03:13:26.291Z,14.90
2017-12-21T03:15:53.960Z,14.43
2017-12-21T03:18:21.570Z,15.55
2017-12-21T03:20:49.076Z,14.73
2017-12-21T03:23:16.666Z,15.75
2017-12-21T03:25:44.533Z,14.80
2017-12-21T03:30:55.602Z,14.90
2017-12-21T03:33:23.181Z,15.30
2017-12-21T03:35:50.698Z,15.48
2017-12-21T03:38:18.173Z,14.25
2017-12-21T03:40:45.723Z,14.32
2017-12-21T03:43:14.568Z,16.15
2017-12-21T03:45:44.011Z,14.68
2017-12-21T03:48:15.414Z,15.02
2017-12-21T03:50:45.830Z,13.98
2017-12-21T03:53:16.212Z,13.30
2017-12-21T03:55:44.342Z,14.15
2017-12-21T03:58:11.923Z,14.00
2017-12-21T04:00:39.496Z,13.32
2017-12-21T04:03:07.072Z,13.50
2017-12-21T04:05:34.578Z,14.20
2017-12-21T04:08:08.628Z,13.57
2017-12-21T04:10:37.952Z,14.05
2017-12-21T04:13:06.513Z,13.15
2017-12-21T04:15:36.349Z,13.52
2017-12-21T04:18:05.948Z,14.10
2017-12-21T04:20:34.320Z,13.60
2017-12-21T04:23:02.064Z,14.32
2017-12-21T04:25:29.568Z,14.63
2017-12-21T04:27:59.348Z,14.30
2017-12-21T04:30:27.818Z,14.10
2017-12-21T04:32:55.696Z,14.38
2017-12-21T04:35:23.259Z,14.20
2017-12-21T04:37:50.809Z,13.40
2017-12-21T04:40:18.404Z,12.57
2017-12-21T04:42:46.611Z,14.30
2017-12-21T04:45:15.658Z,12.82
2017-12-21T04:47:46.352Z,12.68
2017-12-21T04:50:17.314Z,14.30
2017-12-21T04:52:51.740Z,13.23
2017-12-21T04:55:25.520Z,12.75
2017-12-21T04:58:02.628Z,11.48
2017-12-21T05:00:30.800Z,12.95
2017-12-21T05:03:14.027Z,12.45
2017-12-21T05:08:48.110Z,13.07
2017-12-21T05:11:17.885Z,12.13
2017-12-21T05:13:52.286Z,12.30
2017-12-21T05:16:20.316Z,11.45
2017-12-21T05:18:49.693Z,11.88
2017-12-21T05:21:21.614Z,11.90
2017-12-21T05:23:51.241Z,12.77
2017-12-21T05:26:21.274Z,11.70
2017-12-21T05:28:52.175Z,14.15
2017-12-21T05:31:22.339Z,12.70
2017-12-21T05:33:51.196Z,12.13
2017-12-21T05:36:23.055Z,12.65
2017-12-21T05:39:00.664Z,13.45
2017-12-21T05:41:31.773Z,13.68
2017-12-21T05:46:56.539Z,14.10
2017-12-21T06:03:31.621Z,13.23
2017-12-21T06:06:03.411Z,15.05
2017-12-21T06:08:34.300Z,13.10
2017-12-21T06:11:04.116Z,14.65
2017-12-21T06:13:35.220Z,14.40
2017-12-21T06:16:05.837Z,13.18
2017-12-21T06:18:36.922Z,13.90
2017-12-21T06:21:09.159Z,14.35
2017-12-21T06:23:40.176Z,14.63
2017-12-21T06:26:11.192Z,15.82
2017-12-21T06:28:40.493Z,14.43
2017-12-21T06:31:08.100Z,13.65
2017-12-21T06:33:39.643Z,12.05
2017-12-21T06:36:09.128Z,12.80
2017-12-21T06:38:36.980Z,12.57
2017-12-21T06:41:09.565Z,12.60
2017-12-21T06:43:41.161Z,13.20
2017-12-21T06:46:09.388Z,13.75
2017-12-21T06:48:38.433Z,13.45
2017-12-21T06:51:06.029Z,14.38
2017-12-21T06:53:33.550Z,13.93
2017-12-21T06:56:03.557Z,14.38
2017-12-21T06:58:32.794Z,14.70
2017-12-21T07:01:02.057Z,14.68
2017-12-21T07:03:30.536Z,15.07
2017-12-21T07:05:58.145Z,14.55
2017-12-21T07:08:25.612Z,14.40
2017-12-21T07:10:53.101Z,13.68
2017-12-21T07:13:21.198Z,14.02
2017-12-21T07:15:49.054Z,13.40
2017-12-21T07:18:16.739Z,13.88
2017-12-21T07:20:44.264Z,13.43
2017-12-21T07:23:11.767Z,12.25
2017-12-21T07:25:39.733Z,11.43
2017-12-21T07:28:07.664Z,11.48
2017-12-21T07:30:37.146Z,11.75
2017-12-21T07:33:05.524Z,12.20
2017-12-21T07:35:36.392Z,11.75
2017-12-21T07:38:07.775Z,12.15
2017-12-21T07:40:35.450Z,12.60
2017-12-21T07:43:05.936Z,12.05
2017-12-21T07:45:34.893Z,11.90
2017-12-21T07:48:06.800Z,13.30
2017-12-21T07:50:34.570Z,13.30
2017-12-21T07:53:02.385Z,12.57
2017-12-21T07:55:33.704Z,12.10
2017-12-21T07:58:01.636Z,13.10
2017-12-21T08:00:29.234Z,12.40
2017-12-21T08:02:57.254Z,12.95
2017-12-21T08:05:24.909Z,12.70
2017-12-21T08:07:53.263Z,12.43
2017-12-21T08:10:21.256Z,12.15
2017-12-21T08:12:49.426Z,14.07
2017-12-21T08:15:17.088Z,13.43
2017-12-21T08:17:46.136Z,13.32
2017-12-21T08:20:14.205Z,12.68
2017-12-21T08:22:42.632Z,11.93
2017-12-21T08:25:13.155Z,12.40
2017-12-21T08:27:40.752Z,14.70
2017-12-21T08:30:08.277Z,13.43
2017-12-21T08:32:35.811Z,13.90
2017-12-21T08:35:03.446Z,12.32
2017-12-21T08:37:31.024Z,11.10
2017-12-21T08:39:58.663Z,12.10
2017-12-21T08:42:26.186Z,14.10
2017-12-21T08:44:54.843Z,12.20
2017-12-21T08:47:23.040Z,11.80
2017-12-21T08:49:50.554Z,10.75
2017-12-21T08:52:18.770Z,11.30
2017-12-21T08:54:46.309Z,11.88
2017-12-21T08:57:13.794Z,8.90
2017-12-21T08:59:41.331Z,11.30
2017-12-21T09:02:09.626Z,10.52
2017-12-21T09:04:37.112Z,11.82
2017-12-21T09:07:04.816Z,11.30
2017-12-21T09:09:32.335Z,9.57
2017-12-21T09:11:59.875Z,10.82
2017-12-21T09:14:32.383Z,10.50
2017-12-21T09:17:00.246Z,9.88
2017-12-21T09:19:29.181Z,11.12
2017-12-21T09:22:03.182Z,11.27
2017-12-21T09:29:48.180Z,10.60
2017-12-21T09:32:17.361Z,10.50
2017-12-21T09:42:43.449Z,10.27
2017-12-21T09:45:16.485Z,10.00
2017-12-21T09:47:46.395Z,10.35
2017-12-21T09:50:15.034Z,11.57
2017-12-21T09:52:45.343Z,9.70
2017-12-21T09:55:26.321Z,10.10
2017-12-21T09:58:07.702Z,9.75
2017-12-21T10:00:36.089Z,10.07
2017-12-21T10:03:05.043Z,10.13
2017-12-21T10:05:36.022Z,10.77
2017-12-21T10:08:08.906Z,10.45
2017-12-21T10:15:59.839Z,10.00
2017-12-21T10:18:31.070Z,10.45
2017-12-21T10:21:07.390Z,9.38
2017-12-21T10:23:35.568Z,9.23
2017-12-21T10:26:06.763Z,9.68
2017-12-21T10:28:44.827Z,9.23
2017-12-21T10:31:23.341Z,10.63
2017-12-21T10:33:57.599Z,8.90
2017-12-21T10:36:28.334Z,9.32
2017-12-21T10:39:00.960Z,9.45
2017-12-21T10:41:34.388Z,8.55
2017-12-21T10:44:07.390Z,9.45
2017-12-21T10:46:35.808Z,9.70
2017-12-21T10:49:05.503Z,8.50
2017-12-21T10:51:33.453Z,8.25
2017-12-21T10:54:03.146Z,8.77
2017-12-21T10:56:32.105Z,8.38
2017-12-21T10:59:00.034Z,8.75
2017-12-21T11:01:28.230Z,8.10
2017-12-21T11:03:55.733Z,8.93
2017-12-21T11:06:23.328Z,8.40
2017-12-21T11:08:51.463Z,8.35
2017-12-21T11:11:19.183Z,8.60
2017-12-21T11:13:46.717Z,8.17
2017-12-21T11:16:15.127Z,8.23
2017-12-21T11:18:42.841Z,8.18
2017-12-21T11:21:11.449Z,8.30
2017-12-21T11:23:39.089Z,8.03
2017-12-21T11:26:07.043Z,8.48
2017-12-21T11:28:35.073Z,8.32
2017-12-21T11:31:02.665Z,8.63
2017-12-21T11:33:31.244Z,8.00
2017-12-21T11:35:59.831Z,7.32
2017-12-21T11:38:27.782Z,8.23
2017-12-21T11:40:55.433Z,7.35
2017-12-21T11:43:23.311Z,7.25
2017-12-21T11:45:56.709Z,7.18
2017-12-21T11:48:24.284Z,7.60
2017-12-21T11:50:51.997Z,6.28
2017-12-21T11:53:19.684Z,7.95
2017-12-21T11:55:48.518Z,7.78
2017-12-21T12:26:44.362Z,7.37
2017-12-21T12:34:59.813Z,7.70
2017-12-21T13:47:27.770Z,7.25
2017-12-21T13:52:40.507Z,5.73
2017-12-21T13:55:13.462Z,6.50
2017-12-21T13:57:55.025Z,6.25
2017-12-21T14:00:30.756Z,6.03
2017-12-21T14:02:58.336Z,5.87
2017-12-21T14:05:41.100Z,6.55
2017-12-21T14:08:08.709Z,6.70
2017-12-21T14:18:59.076Z,6.15
2017-12-21T14:21:26.859Z,6.57
2017-12-21T14:23:54.586Z,7.10
2017-12-21T14:26:22.510Z,7.80
2017-12-21T14:28:50.149Z,7.27
2017-12-21T14:31:17.688Z,5.00
2017-12-21T14:34:02.840Z,7.23
2017-12-21T14:36:30.464Z,5.80
2017-12-21T14:39:07.580Z,6.93
2017-12-21T14:41:36.654Z,5.93
2017-12-21T15:00:52.892Z,4.75
2017-12-21T15:03:20.414Z,5.00
2017-12-21T15:05:47.887Z,5.80
2017-12-21T15:08:15.409Z,4.97
2017-12-21T15:10:42.918Z,4.82
2017-12-21T15:13:10.441Z,4.47
2017-12-21T15:15:38.563Z,5.47
2017-12-21T15:18:06.020Z,7.53
2017-12-21T15:20:33.580Z,7.10
2017-12-21T15:23:01.088Z,7.40
2017-12-21T15:25:28.769Z,6.67
2017-12-21T15:27:56.405Z,6.07
2017-12-21T15:30:23.986Z,5.32
2017-12-21T15:32:51.555Z,5.10
2017-12-21T15:35:19.882Z,5.07
2017-12-21T15:37:47.454Z,5.13
2017-12-21T15:40:15.887Z,5.13
2017-12-21T15:42:43.520Z,4.53
2017-12-21T15:45:11.090Z,4.27
2017-12-21T15:47:42.293Z,4.83
2017-12-21T15:50:10.338Z,4.70
2017-12-21T15:52:40.193Z,4.73
2017-12-21T15:55:10.126Z,5.07
2017-12-21T15:57:37.866Z,4.73
2017-12-21T16:00:07.420Z,3.83
2017-12-21T16:02:35.191Z,3.62
2017-12-21T16:05:03.140Z,4.40
2017-12-21T16:07:30.708Z,4.17
2017-12-21T16:12:31.634Z,5.40
2017-12-21T16:14:59.172Z,4.70
2017-12-21T16:17:27.305Z,4.20
2017-12-21T16:19:55.146Z,4.60
2017-12-21T16:22:23.224Z,4.32
2017-12-21T16:24:50.858Z,4.43
2017-12-21T16:27:18.486Z,4.00
2017-12-21T16:29:47.132Z,4.32
2017-12-21T16:32:14.721Z,5.73
2017-12-21T16:34:42.327Z,4.70
2017-12-21T16:37:11.266Z,3.70
2017-12-21T16:39:38.880Z,4.67
2017-12-21T16:42:06.491Z,4.40
2017-12-21T16:44:35.321Z,4.10
2017-12-21T16:47:02.814Z,4.50
2017-12-21T16:49:31.351Z,4.33
2017-12-21T16:51:58.994Z,4.93
2017-12-21T16:54:26.526Z,5.00
2017-12-21T16:56:54.131Z,5.63
2017-12-21T16:59:21.858Z,5.37
2017-12-21T17:01:50.405Z,5.47
2017-12-21T17:04:18.933Z,5.40
2017-12-21T17:06:46.682Z,6.70
2017-12-21T17:09:14.220Z,7.57
2017-12-21T17:11:42.438Z,13.07
2017-12-21T17:14:11.562Z,10.00
2017-12-21T17:16:39.204Z,8.07
2017-12-21T17:19:06.813Z,7.30
2017-12-21T17:21:34.398Z,7.47
2017-12-21T17:24:02.001Z,6.77
2017-12-21T17:26:29.526Z,5.77
2017-12-21T17:28:57.974Z,5.43
2017-12-21T17:31:26.066Z,5.20
2017-12-21T17:33:53.677Z,5.83
2017-12-21T17:36:21.241Z,4.60
2017-12-21T17:38:48.791Z,4.80
2017-12-21T17:41:18.427Z,5.50
2017-12-21T17:43:45.999Z,6.50
2017-12-21T17:46:14.357Z,5.53
2017-12-21T17:48:43.644Z,4.93
2017-12-21T17:51:11.251Z,4.70
2017-12-21T17:53:38.837Z,4.73
2017-12-21T17:56:08.346Z,4.40
2017-12-21T17:58:35.911Z,4.97
2017-12-21T18:01:03.469Z,4.70
2017-12-21T18:03:31.208Z,4.73
2017-12-21T18:05:58.887Z,5.57
2017-12-21T18:08:26.800Z,7.37
2017-12-21T18:10:54.397Z,6.93
2017-12-21T18:13:22.015Z,7.50
2017-12-21T18:15:50.298Z,7.93
2017-12-21T18:18:18.722Z,9.10
2017-12-21T18:20:46.417Z,7.30
2017-12-21T18:23:14.395Z,5.93
2017-12-21T18:25:41.926Z,6.90
2017-12-21T18:28:09.495Z,6.60
2017-12-21T18:30:38.506Z,6.43
2017-12-21T18:33:06.052Z,7.45
2017-12-21T18:35:34.448Z,7.83
2017-12-21T18:38:02.112Z,7.80
2017-12-21T18:40:29.911Z,7.63
2017-12-21T18:42:57.485Z,6.10
2017-12-21T18:45:27.319Z,6.43
2017-12-21T18:47:55.030Z,6.57
2017-12-21T18:50:23.233Z,5.87
2017-12-21T18:52:51.037Z,5.60
2017-12-21T18:55:20.447Z,5.65
2017-12-21T18:57:48.194Z,5.40
2017-12-21T19:00:16.912Z,4.95
2017-12-21T19:05:18.536Z,5.27
2017-12-21T19:07:50.729Z,5.60
2017-12-21T19:10:18.367Z,5.50
2017-12-21T19:12:47.193Z,4.80
2017-12-21T19:15:16.343Z,5.10
2017-12-21T19:17:44.758Z,4.90
2017-12-21T19:20:13.258Z,5.60
2017-12-21T19:22:41.617Z,5.57
2017-12-21T19:25:10.256Z,5.90
2017-12-21T19:27:38.763Z,6.30
2017-12-21T19:30:08.865Z,6.00
2017-12-21T19:32:37.661Z,6.10
2017-12-21T19:35:08.151Z,6.50
2017-12-21T19:37:36.368Z,6.50
2017-12-21T19:40:06.855Z,6.30
2017-12-21T19:42:36.715Z,7.03
2017-12-21T19:45:05.054Z,7.25
2017-12-21T19:47:33.834Z,6.20
2017-12-21T19:50:04.397Z,6.60
2017-12-21T19:52:33.357Z,6.68
2017-12-21T19:55:02.000Z,7.10
2017-12-21T19:57:30.406Z,6.10
2017-12-21T19:59:59.159Z,6.87
2017-12-21T20:02:28.698Z,7.15
2017-12-21T20:04:57.784Z,7.50
2017-12-21T20:07:27.634Z,7.00
2017-12-21T20:09:56.007Z,7.20
2017-12-21T20:12:26.943Z,5.35
2017-12-21T20:14:56.151Z,6.37
2017-12-21T20:17:24.904Z,6.73
2017-12-21T20:19:53.345Z,6.00
2017-12-21T20:22:21.826Z,6.50
2017-12-21T20:24:51.876Z,6.20
2017-12-21T20:27:22.082Z,5.68
2017-12-21T20:29:50.832Z,5.72
2017-12-21T20:32:20.816Z,5.78
2017-12-21T20:34:49.645Z,5.87
2017-12-21T20:37:17.627Z,6.20
2017-12-21T20:39:46.081Z,5.62
2017-12-21T20:42:16.125Z,5.90
2017-12-21T20:44:45.539Z,6.10
2017-12-21T20:47:15.239Z,6.00
2017-12-21T20:49:45.213Z,5.95
2017-12-21T20:52:15.895Z,6.23
2017-12-21T20:54:46.818Z,6.00
2017-12-21T20:57:15.393Z,5.97
2017-12-21T20:59:44.919Z,6.50
2017-12-21T21:02:14.598Z,5.90
2017-12-21T21:04:43.746Z,5.45
2017-12-21T21:07:12.070Z,6.35
2017-12-21T21:09:41.190Z,5.50
2017-12-21T21:12:13.342Z,6.10
2017-12-21T21:14:42.672Z,5.30
2017-12-21T21:17:12.399Z,6.13
2017-12-21T21:19:41.641Z,5.87
2017-12-21T21:22:10.891Z,5.97
2017-12-21T21:24:39.952Z,6.60
2017-12-21T21:27:08.435Z,6.20
2017-12-21T21:29:36.894Z,6.53
2017-12-21T21:32:07.718Z,6.00
2017-12-21T21:34:36.731Z,6.22
2017-12-21T21:37:04.724Z,7.40
2017-12-21T21:39:33.434Z,8.23
2017-12-21T21:42:00.990Z,8.17
2017-12-21T21:44:28.551Z,8.20
2017-12-21T21:46:56.344Z,8.60
2017-12-21T21:49:25.993Z,8.13
2017-12-21T21:51:54.551Z,7.70
2017-12-21T21:54:22.974Z,7.70
2017-12-21T21:56:54.315Z,7.77
2017-12-21T21:59:22.622Z,7.50
2017-12-21T22:01:50.190Z,7.73
2017-12-21T22:04:18.733Z,7.83
2017-12-21T22:06:46.275Z,8.17
2017-12-21T22:09:14.832Z,8.57
2017-12-21T22:11:42.456Z,7.87
2017-12-21T22:14:10.578Z,8.33
2017-12-21T22:16:38.711Z,8.10
2017-12-21T22:19:08.153Z,7.30
2017-12-21T22:21:35.758Z,7.93
2017-12-21T22:24:04.891Z,6.90
2017-12-21T22:26:32.539Z,7.43
2017-12-21T22:29:01.160Z,7.40
2017-12-21T22:31:29.829Z,7.83
2017-12-21T22:33:57.615Z,7.30
2017-12-21T22:36:26.508Z,7.10
2017-12-21T22:38:55.850Z,7.07
2017-12-21T22:41:27.522Z,7.00
2017-12-21T22:43:56.177Z,6.80
2017-12-21T22:46:24.956Z,6.67
2017-12-21T22:48:52.453Z,6.50
2017-12-21T22:51:19.996Z,7.37
2017-12-21T22:53:48.487Z,8.23
2017-12-21T22:56:16.852Z,7.10
2017-12-21T22:58:44.527Z,7.50
2017-12-21T23:01:12.100Z,7.20
2017-12-21T23:03:39.658Z,7.27
2017-12-21T23:06:08.160Z,6.60
2017-12-21T23:08:35.727Z,6.70
2017-12-21T23:11:03.999Z,6.73
2017-12-21T23:13:31.601Z,6.27
2017-12-21T23:15:59.288Z,7.03
2017-12-21T23:18:28.799Z,7.60
2017-12-21T23:20:56.833Z,6.97
2017-12-21T23:23:24.433Z,7.67
2017-12-21T23:25:52.896Z,6.60
2017-12-21T23:28:20.457Z,6.70
2017-12-21T23:30:49.246Z,6.53
2017-12-21T23:33:16.846Z,6.50
2017-12-21T23:35:45.720Z,6.80
2017-12-21T23:38:14.318Z,7.40
2017-12-21T23:40:41.901Z,7.33
2017-12-21T23:43:10.709Z,6.43
2017-12-21T23:45:38.329Z,7.30
2017-12-21T23:48:06.008Z,7.30
2017-12-21T23:50:34.503Z,8.00
2017-12-21T23:53:02.960Z,8.37
2017-12-21T23:55:30.642Z,8.40
2017-12-21T23:57:59.293Z,8.10
